Time;durP1;ratioP1;P1;durP2;ratioP2;P2;SDS_P1;SDS_P2;PMS_P1;PMS_P2;Temp;Humidity;BMP_temperature;BMP_pressure;BME280_temperature;BME280_humidity;BME280_pressure;Samples;Min_cycle;Max_cycle;Signal;HPM_P1;HPM_P2
2023/03/31 00:01:08;;;;;;;8.20;2.57;;;14.50;99.90;;;;;;5046639;28;20250;-32
2023/03/31 00:03:42;;;;;;;8.80;2.90;;;14.50;99.90;;;;;;5048369;28;20203;-32
2023/03/31 00:06:16;;;;;;;9.43;2.77;;;14.50;99.90;;;;;;5048171;28;20231;-32
2023/03/31 00:08:50;;;;;;;11.47;3.27;;;14.50;99.90;;;;;;5046907;28;20195;-32
2023/03/31 00:11:20;;;;;;;12.97;3.20;;;14.60;99.90;;;;;;5047998;28;20899;-33
2023/03/31 00:13:47;;;;;;;9.20;3.40;;;14.60;99.90;;;;;;5030358;28;20262;-32
2023/03/31 00:16:15;;;;;;;9.90;2.77;;;14.60;99.90;;;;;;5046210;28;20667;-32
2023/03/31 00:18:49;;;;;;;9.37;2.90;;;14.60;99.90;;;;;;5047979;28;20859;-32
2023/03/31 00:21:23;;;;;;;11.20;2.70;;;14.60;99.90;;;;;;5046073;28;20315;-32
2023/03/31 00:23:57;;;;;;;9.77;2.47;;;14.60;99.90;;;;;;5046450;28;20767;-32
2023/03/31 00:26:25;;;;;;;8.10;2.50;;;14.60;99.90;;;;;;5047901;28;20216;-32
2023/03/31 00:28:55;;;;;;;11.70;3.03;;;14.60;99.90;;;;;;5047471;28;20668;-32
2023/03/31 00:31:23;;;;;;;7.13;1.97;;;14.60;99.90;;;;;;5029637;28;20702;-33
2023/03/31 00:33:53;;;;;;;8.13;2.42;;;14.60;99.90;;;;;;5045864;28;20204;-32
2023/03/31 00:36:26;;;;;;;13.63;2.78;;;14.60;99.90;;;;;;5047013;28;20216;-32
2023/03/31 00:38:58;;;;;;;10.30;3.07;;;14.60;99.90;;;;;;5046292;28;20200;-32
2023/03/31 00:41:29;;;;;;;11.70;2.53;;;14.60;99.90;;;;;;5029683;28;20295;-32
2023/03/31 00:44:25;;;;;;;8.87;2.57;;;14.60;99.90;;;;;;5047486;28;20669;-32
2023/03/31 00:47:06;;;;;;;6.47;2.00;;;14.60;99.90;;;;;;5046174;28;20269;-32
2023/03/31 00:49:40;;;;;;;10.93;2.53;;;14.60;99.90;;;;;;5047216;28;20200;-32
2023/03/31 00:52:21;;;;;;;12.17;2.77;;;14.60;99.90;;;;;;5045726;28;20200;-32
2023/03/31 00:54:55;;;;;;;12.27;3.00;;;14.70;99.90;;;;;;5046693;28;20270;-32
2023/03/31 00:57:24;;;;;;;11.43;2.93;;;14.70;99.90;;;;;;5047129;28;20198;-32
2023/03/31 00:59:57;;;;;;;11.87;2.83;;;14.70;99.90;;;;;;5009051;28;20216;-32
2023/03/31 01:02:32;;;;;;;10.50;2.73;;;14.70;99.90;;;;;;5029030;28;20223;-32
2023/03/31 01:05:05;;;;;;;11.87;2.57;;;14.70;99.90;;;;;;5022571;28;20224;-32
2023/03/31 01:07:42;;;;;;;11.20;2.40;;;14.60;99.90;;;;;;5033331;28;20271;-32
2023/03/31 01:10:10;;;;;;;10.67;2.60;;;14.60;99.90;;;;;;5033948;28;20211;-32
2023/03/31 01:12:41;;;;;;;12.10;2.43;;;14.60;99.90;;;;;;5047085;28;20293;-32
2023/03/31 01:15:11;;;;;;;13.30;2.90;;;14.60;99.90;;;;;;5041011;28;20220;-32
2023/03/31 01:17:39;;;;;;;7.83;2.23;;;14.60;99.90;;;;;;5038446;28;20299;-32
2023/03/31 01:20:36;;;;;;;9.83;2.17;;;14.50;99.90;;;;;;5045219;28;20563;-32
2023/03/31 01:23:21;;;;;;;12.55;2.55;;;14.50;99.90;;;;;;5045727;28;20307;-32
2023/03/31 01:26:23;;;;;;;10.00;2.22;;;14.50;99.90;;;;;;5024740;28;20211;-32
2023/03/31 01:28:56;;;;;;;6.87;1.93;;;14.50;99.90;;;;;;5024864;28;20204;-32
2023/03/31 01:31:37;;;;;;;7.20;2.20;;;14.50;99.90;;;;;;5025450;28;20779;-32
2023/03/31 01:34:31;;;;;;;12.10;2.40;;;14.50;99.90;;;;;;5025673;28;20193;-32
2023/03/31 01:37:21;;;;;;;8.37;1.90;;;14.50;99.90;;;;;;5026821;28;20283;-32
2023/03/31 01:40:18;;;;;;;10.80;2.00;;;14.50;99.90;;;;;;5026604;28;20216;-32
2023/03/31 01:42:52;;;;;;;8.23;2.20;;;14.40;99.90;;;;;;5026557;28;20201;-32
2023/03/31 01:45:25;;;;;;;8.43;1.90;;;14.40;99.90;;;;;;5026392;28;20299;-32
2023/03/31 01:47:56;;;;;;;7.67;2.13;;;14.40;99.90;;;;;;5025011;28;20247;-32
2023/03/31 01:50:29;;;;;;;7.33;2.13;;;14.40;99.90;;;;;;5026161;28;20221;-32
2023/03/31 01:53:25;;;;;;;7.60;1.87;;;14.40;99.90;;;;;;5024698;28;20225;-32
2023/03/31 01:56:06;;;;;;;7.33;1.97;;;14.40;99.90;;;;;;5025830;28;20240;-31
2023/03/31 01:58:41;;;;;;;8.77;1.90;;;14.40;99.90;;;;;;5025126;28;20583;-32
2023/03/31 02:01:25;;;;;;;6.93;1.80;;;14.40;99.90;;;;;;5024604;28;20213;-32
2023/03/31 02:04:09;;;;;;;5.83;1.80;;;14.40;99.90;;;;;;5026635;28;20231;-32
2023/03/31 02:06:41;;;;;;;7.23;1.80;;;14.40;99.90;;;;;;5024731;28;20209;-32
2023/03/31 02:09:15;;;;;;;11.07;2.30;;;14.30;99.90;;;;;;5028196;28;20205;-32
2023/03/31 02:11:48;;;;;;;10.47;2.40;;;14.30;99.90;;;;;;5028684;28;20258;-32
2023/03/31 02:14:21;;;;;;;10.13;2.20;;;14.30;99.90;;;;;;5030284;28;20212;-32
2023/03/31 02:16:57;;;;;;;6.27;2.30;;;14.30;99.90;;;;;;5012727;28;20259;-32
2023/03/31 02:19:30;;;;;;;9.60;2.20;;;14.30;99.90;;;;;;5029894;28;20692;-32
2023/03/31 02:22:02;;;;;;;6.37;2.33;;;14.30;99.90;;;;;;5030120;28;20298;-32
2023/03/31 02:24:32;;;;;;;7.20;1.90;;;14.30;99.90;;;;;;5028638;28;20299;-32
2023/03/31 02:27:24;;;;;;;6.23;2.00;;;14.30;99.90;;;;;;5030131;28;20251;-32
2023/03/31 02:29:51;;;;;;;5.80;1.80;;;14.20;99.90;;;;;;5029806;28;20205;-32
2023/03/31 02:32:31;;;;;;;6.33;1.70;;;14.20;99.90;;;;;;5029855;28;20233;-32
2023/03/31 02:34:59;;;;;;;5.80;1.50;;;14.20;99.90;;;;;;5029755;28;20251;-32
2023/03/31 02:37:29;;;;;;;5.93;1.87;;;14.20;99.90;;;;;;5028436;28;20224;-32
2023/03/31 02:40:00;;;;;;;6.67;1.60;;;14.20;99.90;;;;;;5029834;28;20205;-32
2023/03/31 02:42:27;;;;;;;5.40;1.63;;;14.10;99.90;;;;;;5029605;28;20217;-32
2023/03/31 02:45:08;;;;;;;7.30;1.83;;;14.10;99.90;;;;;;5028601;28;20295;-32
2023/03/31 02:47:35;;;;;;;4.70;1.70;;;14.10;99.90;;;;;;5029564;28;20196;-32
2023/03/31 02:50:04;;;;;;;5.67;1.33;;;14.10;99.90;;;;;;5029230;28;20221;-32
2023/03/31 02:53:09;;;;;;;5.83;1.27;;;14.10;99.90;;;;;;5012793;28;20201;-32
2023/03/31 02:55:37;;;;;;;4.73;1.40;;;14.10;99.90;;;;;;5029553;28;20323;-32
2023/03/31 02:58:26;;;;;;;4.50;1.13;;;14.00;99.90;;;;;;5029410;28;20698;-32
2023/03/31 03:01:13;;;;;;;4.97;1.10;;;14.00;99.90;;;;;;5027770;28;20223;-32
2023/03/31 03:03:43;;;;;;;5.47;1.50;;;14.00;99.90;;;;;;5028814;28;20300;-33
2023/03/31 03:06:36;;;;;;;3.47;1.30;;;14.00;99.90;;;;;;5029183;28;20201;-32
2023/03/31 03:09:06;;;;;;;4.97;1.33;;;13.90;99.90;;;;;;5029136;28;20283;-32
2023/03/31 03:11:49;;;;;;;4.50;1.30;;;13.90;99.90;;;;;;5028853;28;20302;-32
2023/03/31 03:14:40;;;;;;;5.40;1.50;;;13.80;99.90;;;;;;5029372;28;20211;-32
2023/03/31 03:17:13;;;;;;;6.07;1.63;;;13.80;99.90;;;;;;5028952;28;20217;-33
2023/03/31 03:19:41;;;;;;;5.00;1.50;;;13.80;99.90;;;;;;5028698;28;20200;-32
2023/03/31 03:22:09;;;;;;;4.27;1.30;;;13.80;99.90;;;;;;5027786;28;20200;-32
2023/03/31 03:24:36;;;;;;;7.90;1.10;;;13.80;99.90;;;;;;5027739;28;20302;-34
2023/03/31 03:27:05;;;;;;;4.10;1.07;;;13.80;99.90;;;;;;5029390;28;20216;-32
2023/03/31 03:29:32;;;;;;;6.20;1.37;;;13.80;99.90;;;;;;5028893;28;20237;-32
2023/03/31 03:31:59;;;;;;;5.87;1.30;;;13.80;99.90;;;;;;5011413;28;20710;-32
2023/03/31 03:34:29;;;;;;;4.97;1.10;;;13.80;99.90;;;;;;5027170;28;20625;-32
2023/03/31 03:36:57;;;;;;;3.03;1.17;;;13.80;99.90;;;;;;5028911;28;20197;-32
2023/03/31 03:39:26;;;;;;;4.87;1.40;;;13.80;99.90;;;;;;5028714;28;20315;-32
2023/03/31 03:41:53;;;;;;;6.53;1.50;;;13.80;99.90;;;;;;5028561;28;20323;-32
2023/03/31 03:44:22;;;;;;;6.87;1.60;;;13.80;99.90;;;;;;5028959;28;20604;-32
2023/03/31 03:46:52;;;;;;;6.37;1.87;;;13.80;99.90;;;;;;5029159;28;20638;-32
2023/03/31 03:49:21;;;;;;;5.60;1.60;;;13.80;99.90;;;;;;5027422;28;20227;-32
2023/03/31 03:51:53;;;;;;;6.17;1.60;;;13.80;99.90;;;;;;5027056;28;20234;-31
2023/03/31 03:54:22;;;;;;;4.80;1.47;;;13.80;99.90;;;;;;5027033;28;20254;-32
2023/03/31 03:56:51;;;;;;;5.13;1.50;;;13.80;99.90;;;;;;5028148;28;20209;-32
2023/03/31 03:59:23;;;;;;;4.37;1.10;;;13.80;99.90;;;;;;5028628;28;20680;-32
2023/03/31 04:01:51;;;;;;;4.57;1.37;;;13.80;99.90;;;;;;5028015;28;20283;-32
2023/03/31 04:04:18;;;;;;;8.23;1.80;;;13.80;99.90;;;;;;5027224;28;20224;-33
2023/03/31 04:06:45;;;;;;;7.30;1.43;;;13.80;99.90;;;;;;5028315;28;20328;-33
2023/03/31 04:09:15;;;;;;;4.87;1.57;;;13.80;99.90;;;;;;5027055;28;20251;-32
2023/03/31 04:11:44;;;;;;;6.70;1.60;;;13.80;99.90;;;;;;5026273;28;20229;-32
2023/03/31 04:14:12;;;;;;;5.33;1.73;;;13.80;99.90;;;;;;5028439;28;20197;-33
2023/03/31 04:16:41;;;;;;;9.17;2.03;;;13.80;99.90;;;;;;5028477;28;20299;-33
2023/03/31 04:19:13;;;;;;;7.50;1.53;;;13.90;99.90;;;;;;5028154;28;20201;-32
2023/03/31 04:21:57;;;;;;;17.53;2.53;;;13.90;99.90;;;;;;5026554;28;20208;-32
2023/03/31 04:24:29;;;;;;;4.53;1.47;;;13.90;99.90;;;;;;5027915;28;20215;-32
2023/03/31 04:26:57;;;;;;;5.67;1.50;;;13.90;99.90;;;;;;5028161;28;20231;-32
2023/03/31 04:29:27;;;;;;;6.70;1.33;;;13.90;99.90;;;;;;5026137;28;20236;-33
2023/03/31 04:31:58;;;;;;;4.83;1.10;;;13.80;99.90;;;;;;5026961;28;20224;-32
2023/03/31 04:34:33;;;;;;;4.67;1.30;;;13.80;99.90;;;;;;5026153;28;20200;-32
2023/03/31 04:37:02;;;;;;;5.93;1.40;;;13.80;99.90;;;;;;5027433;28;20217;-31
2023/03/31 04:39:29;;;;;;;7.20;1.40;;;13.80;99.90;;;;;;5026293;28;20567;-32
2023/03/31 04:41:58;;;;;;;5.43;1.47;;;13.80;99.90;;;;;;5026214;28;20207;-32
2023/03/31 04:44:28;;;;;;;4.67;1.47;;;13.80;99.90;;;;;;5026017;28;20201;-32
2023/03/31 04:47:01;;;;;;;5.33;1.60;;;13.80;99.90;;;;;;5027189;28;20715;-32
2023/03/31 04:49:34;;;;;;;2.47;1.07;;;13.80;99.90;;;;;;5027526;28;20205;-32
2023/03/31 04:52:02;;;;;;;5.33;1.63;;;13.80;99.90;;;;;;5026088;28;20225;-33
2023/03/31 04:54:31;;;;;;;7.37;1.30;;;13.80;99.90;;;;;;5025565;28;20300;-33
2023/03/31 04:56:58;;;;;;;6.50;1.60;;;13.80;99.90;;;;;;5027184;28;20259;-34
2023/03/31 04:59:33;;;;;;;4.43;1.60;;;13.80;99.90;;;;;;5025859;28;20239;-34
2023/03/31 05:02:03;;;;;;;5.60;1.57;;;13.80;99.90;;;;;;5025598;28;20207;-33
2023/03/31 05:04:30;;;;;;;6.07;1.63;;;13.80;99.90;;;;;;5025962;28;20302;-33
2023/03/31 05:06:57;;;;;;;9.53;1.70;;;13.80;99.90;;;;;;5025811;28;20631;-34
2023/03/31 05:09:29;;;;;;;6.30;1.83;;;13.80;99.90;;;;;;5026864;28;20567;-34
2023/03/31 05:11:59;;;;;;;4.33;1.87;;;13.80;99.90;;;;;;5026871;28;20273;-33
2023/03/31 05:14:26;;;;;;;5.13;1.70;;;13.80;99.90;;;;;;5009443;28;20205;-33
2023/03/31 05:16:58;;;;;;;5.47;1.60;;;13.80;99.90;;;;;;5026834;28;20201;-34
2023/03/31 05:19:25;;;;;;;8.50;1.80;;;13.80;99.90;;;;;;5025291;28;20193;-34
2023/03/31 05:21:55;;;;;;;4.00;1.53;;;13.80;99.90;;;;;;5025293;28;20786;-34
2023/03/31 05:24:22;;;;;;;7.23;2.00;;;13.80;99.90;;;;;;5027264;28;20212;-34
2023/03/31 05:26:51;;;;;;;6.27;1.70;;;13.80;99.90;;;;;;5024606;28;20208;-34
2023/03/31 05:29:19;;;;;;;7.40;1.97;;;13.80;99.90;;;;;;5026238;28;20222;-33
2023/03/31 05:31:47;;;;;;;7.00;2.13;;;13.90;99.90;;;;;;5025919;28;20224;-34
2023/03/31 05:34:14;;;;;;;8.60;2.10;;;13.90;99.90;;;;;;5026568;28;20644;-34
2023/03/31 05:36:46;;;;;;;12.00;2.20;;;13.90;99.90;;;;;;5026085;28;20209;-34
2023/03/31 05:39:17;;;;;;;10.20;2.33;;;13.90;99.90;;;;;;5024812;28;20686;-34
2023/03/31 05:41:44;;;;;;;8.23;1.90;;;13.80;99.90;;;;;;5024430;28;20228;-33
2023/03/31 05:44:11;;;;;;;7.83;1.90;;;13.90;99.90;;;;;;5024538;28;20298;-34
2023/03/31 05:46:41;;;;;;;8.50;2.30;;;13.90;99.90;;;;;;5024424;28;20225;-33
2023/03/31 05:49:10;;;;;;;9.97;2.13;;;13.90;99.90;;;;;;5025636;28;20292;-34
2023/03/31 05:51:37;;;;;;;6.53;2.00;;;13.90;99.90;;;;;;5026240;28;20224;-33
2023/03/31 05:54:05;;;;;;;6.63;2.00;;;13.90;99.90;;;;;;5026542;28;20327;-32
2023/03/31 05:56:32;;;;;;;7.27;2.00;;;13.90;99.90;;;;;;5026043;28;20232;-32
2023/03/31 05:59:00;;;;;;;7.33;2.03;;;13.90;99.90;;;;;;5024888;28;20236;-33
2023/03/31 06:01:28;;;;;;;6.37;2.00;;;13.90;99.90;;;;;;5024732;28;20224;-33
2023/03/31 06:03:58;;;;;;;8.83;2.00;;;13.80;99.90;;;;;;5026233;28;20244;-33
2023/03/31 06:06:26;;;;;;;8.50;1.90;;;13.80;99.90;;;;;;5026232;28;20285;-33
2023/03/31 06:08:54;;;;;;;9.43;2.30;;;13.80;99.90;;;;;;5024654;28;20429;-32
2023/03/31 06:11:21;;;;;;;8.13;2.10;;;13.80;99.90;;;;;;5025733;28;20311;-33
2023/03/31 06:13:53;;;;;;;8.80;2.30;;;13.90;99.90;;;;;;5026063;28;20235;-32
2023/03/31 06:16:21;;;;;;;8.80;2.47;;;13.90;99.90;;;;;;5008904;28;20251;-33
2023/03/31 06:18:50;;;;;;;8.60;2.23;;;13.90;99.90;;;;;;5024303;28;20193;-33
2023/03/31 06:21:20;;;;;;;13.33;2.77;;;13.90;99.90;;;;;;5025872;28;20219;-33
2023/03/31 06:23:53;;;;;;;7.90;2.23;;;13.90;99.90;;;;;;5008054;28;20204;-32
2023/03/31 06:26:22;;;;;;;9.40;2.20;;;13.90;99.90;;;;;;5025970;28;20787;-33
2023/03/31 06:28:49;;;;;;;10.07;2.73;;;13.90;99.90;;;;;;5008419;28;21198;-32
2023/03/31 06:31:19;;;;;;;14.00;2.97;;;13.90;99.90;;;;;;5024453;28;20221;-33
2023/03/31 06:33:49;;;;;;;9.40;2.83;;;13.90;99.90;;;;;;5025912;28;20215;-33
2023/03/31 06:36:23;;;;;;;21.63;4.10;;;13.90;99.90;;;;;;5025674;28;20204;-32
2023/03/31 06:38:51;;;;;;;25.42;5.68;;;14.00;99.90;;;;;;5025269;28;20208;-33
2023/03/31 06:41:21;;;;;;;24.53;4.97;;;13.90;99.90;;;;;;5025340;28;20197;-32
2023/03/31 06:43:49;;;;;;;16.47;3.50;;;13.90;99.90;;;;;;5023805;28;20702;-33
2023/03/31 06:46:16;;;;;;;35.43;6.63;;;13.90;99.90;;;;;;5025301;28;20237;-32
2023/03/31 06:48:51;;;;;;;23.67;4.80;;;14.00;99.90;;;;;;5023903;28;20244;-33
2023/03/31 06:51:21;;;;;;;25.23;4.37;;;14.00;99.90;;;;;;5023922;28;20255;-32
2023/03/31 06:53:50;;;;;;;14.40;3.27;;;14.00;99.90;;;;;;5026309;28;20197;-34
2023/03/31 06:56:20;;;;;;;16.60;3.23;;;14.10;99.90;;;;;;5027326;28;20314;-33
2023/03/31 06:58:48;;;;;;;10.53;2.57;;;14.10;99.90;;;;;;5029090;28;20312;-32
2023/03/31 07:01:17;;;;;;;14.10;4.10;;;14.10;99.90;;;;;;5027261;28;20619;-33
2023/03/31 07:03:47;;;;;;;17.23;3.13;;;14.20;99.90;;;;;;5028561;28;20710;-32
2023/03/31 07:06:17;;;;;;;22.77;4.87;;;14.10;99.90;;;;;;5027078;28;20216;-33
2023/03/31 07:08:47;;;;;;;12.40;3.20;;;14.20;99.90;;;;;;5027051;28;20243;-33
2023/03/31 07:11:15;;;;;;;14.35;3.53;;;14.20;99.90;;;;;;5028388;28;20232;-33
2023/03/31 07:13:44;;;;;;;13.70;2.83;;;14.20;99.90;;;;;;5028813;28;20224;-33
2023/03/31 07:16:14;;;;;;;11.50;3.20;;;14.30;99.90;;;;;;5028500;28;20197;-33
2023/03/31 07:18:41;;;;;;;11.90;3.43;;;14.30;99.90;;;;;;5027143;28;20201;-32
2023/03/31 07:21:08;;;;;;;11.80;3.57;;;14.30;99.90;;;;;;5026862;28;20193;-33
2023/03/31 07:23:36;;;;;;;11.40;3.53;;;14.30;99.90;;;;;;5010764;28;20791;-34
2023/03/31 07:26:05;;;;;;;14.93;2.80;;;14.40;99.90;;;;;;5010493;28;20197;-32
2023/03/31 07:28:37;;;;;;;14.37;3.53;;;14.40;99.90;;;;;;5028381;28;20208;-33
2023/03/31 07:31:10;;;;;;;15.97;3.77;;;14.40;99.90;;;;;;5028187;28;20764;-33
2023/03/31 07:33:38;;;;;;;13.93;3.20;;;14.50;99.90;;;;;;5026470;28;20565;-33
2023/03/31 07:36:06;;;;;;;10.00;3.10;;;14.50;99.90;;;;;;5028305;28;20197;-33
2023/03/31 07:38:41;;;;;;;13.17;3.20;;;14.50;99.90;;;;;;5026587;28;20199;-32
2023/03/31 07:41:16;;;;;;;16.43;3.60;;;14.50;99.90;;;;;;5026275;28;20215;-32
2023/03/31 07:43:45;;;;;;;15.63;3.30;;;14.50;99.90;;;;;;5026484;28;20196;-32
2023/03/31 07:46:25;;;;;;;24.07;4.43;;;14.50;99.90;;;;;;5026439;28;20288;-33
2023/03/31 07:48:54;;;;;;;16.90;3.63;;;14.50;99.90;;;;;;5028170;28;20221;-32
2023/03/31 07:51:24;;;;;;;14.10;3.73;;;14.60;99.90;;;;;;5026485;28;20280;-32
2023/03/31 07:53:52;;;;;;;16.70;3.07;;;14.60;99.90;;;;;;5026208;28;20320;-33
2023/03/31 07:56:21;;;;;;;25.00;4.37;;;14.60;99.90;;;;;;5028146;28;20901;-32
2023/03/31 07:58:50;;;;;;;18.77;4.20;;;14.60;99.90;;;;;;5026791;28;20235;-33
2023/03/31 08:01:24;;;;;;;25.40;4.80;;;14.60;99.90;;;;;;5028246;28;20189;-32
2023/03/31 08:03:54;;;;;;;16.17;4.13;;;14.60;99.90;;;;;;5026672;28;20671;-32
2023/03/31 08:06:25;;;;;;;20.07;3.77;;;14.50;99.90;;;;;;5028211;28;20295;-33
2023/03/31 08:08:56;;;;;;;19.77;3.80;;;14.50;99.90;;;;;;5027934;28;20260;-31
2023/03/31 08:11:26;;;;;;;17.90;3.53;;;14.50;99.90;;;;;;5026450;28;20201;-33
2023/03/31 08:13:56;;;;;;;17.73;4.10;;;14.50;99.90;;;;;;5027793;28;20205;-32
2023/03/31 08:16:27;;;;;;;11.13;3.43;;;14.60;99.90;;;;;;5027789;28;20302;-32
2023/03/31 08:18:57;;;;;;;12.10;3.13;;;14.50;99.90;;;;;;5026298;28;20189;-33
2023/03/31 08:21:24;;;;;;;18.97;3.80;;;14.60;99.90;;;;;;5026310;28;20205;-32
2023/03/31 08:23:55;;;;;;;17.30;3.27;;;14.50;99.90;;;;;;5027515;28;20239;-32
2023/03/31 08:26:25;;;;;;;13.70;3.10;;;14.60;99.90;;;;;;5027825;28;20207;-33
2023/03/31 08:28:52;;;;;;;14.07;3.40;;;14.60;99.90;;;;;;5027239;28;20197;-32
2023/03/31 08:31:22;;;;;;;16.23;3.60;;;14.60;99.90;;;;;;5027454;28;20197;-32
2023/03/31 08:33:56;;;;;;;16.20;3.30;;;14.70;99.90;;;;;;5027786;28;20221;-32
2023/03/31 08:36:24;;;;;;;14.23;3.73;;;14.70;99.90;;;;;;5027541;28;20644;-32
2023/03/31 08:38:52;;;;;;;31.27;6.37;;;14.70;99.90;;;;;;5027238;28;20200;-32
2023/03/31 08:41:45;;;;;;;17.13;3.97;;;14.80;99.90;;;;;;5027801;28;20311;-32
2023/03/31 08:44:35;;;;;;;30.43;5.37;;;14.70;99.90;;;;;;5026258;28;20631;-35
2023/03/31 08:47:04;;;;;;;16.00;3.37;;;14.80;99.90;;;;;;5025950;28;20203;-32
2023/03/31 08:49:44;;;;;;;10.80;2.77;;;14.80;99.90;;;;;;5026804;28;20220;-33
2023/03/31 08:52:19;;;;;;;12.53;3.50;;;14.80;99.90;;;;;;5027196;28;20279;-33
2023/03/31 08:54:54;;;;;;;11.70;2.90;;;14.80;99.90;;;;;;5027175;28;20243;-33
2023/03/31 08:57:29;;;;;;;10.13;3.00;;;14.80;99.90;;;;;;5026960;28;20254;-33
2023/03/31 08:59:57;;;;;;;11.73;2.97;;;14.80;99.90;;;;;;5025474;28;20295;-33
2023/03/31 09:02:40;;;;;;;11.27;2.13;;;14.80;99.90;;;;;;5009058;28;20286;-33
2023/03/31 09:05:35;;;;;;;8.63;2.30;;;14.90;99.90;;;;;;5026723;28;20207;-32
2023/03/31 09:08:37;;;;;;;11.17;2.60;;;14.90;99.90;;;;;;5026833;28;20228;-33
2023/03/31 09:11:10;;;;;;;11.20;2.47;;;15.00;99.90;;;;;;5027025;28;20219;-32
2023/03/31 09:13:59;;;;;;;8.87;2.23;;;15.00;99.90;;;;;;5025976;28;20251;-32
2023/03/31 09:16:49;;;;;;;10.67;2.43;;;15.00;99.90;;;;;;5025249;28;20197;-33
2023/03/31 09:19:40;;;;;;;11.17;3.17;;;15.10;99.90;;;;;;5027640;28;20638;-33
2023/03/31 09:22:16;;;;;;;9.10;2.43;;;15.10;99.90;;;;;;5025661;28;20189;-33
2023/03/31 09:25:09;;;;;;;16.45;2.95;;;15.10;99.90;;;;;;5026770;28;20621;-33
2023/03/31 09:27:41;;;;;;;10.03;3.00;;;15.10;99.90;;;;;;5026640;28;20216;-33
2023/03/31 09:30:25;;;;;;;11.65;2.90;;;15.20;99.90;;;;;;5025215;28;20209;-33
2023/03/31 09:33:13;;;;;;;21.37;4.40;;;15.20;99.90;;;;;;5009863;28;20747;-33
2023/03/31 09:35:40;;;;;;;28.63;3.97;;;15.20;99.90;;;;;;5026658;28;20687;-33
2023/03/31 09:38:15;;;;;;;35.23;5.20;;;15.20;99.90;;;;;;5026452;28;20224;-33
2023/03/31 09:40:44;;;;;;;20.10;3.58;;;15.20;99.90;;;;;;5026314;28;20247;-32
2023/03/31 09:43:24;;;;;;;18.50;3.73;;;15.20;99.90;;;;;;5026385;28;20710;-33
2023/03/31 09:45:55;;;;;;;19.90;4.13;;;15.20;99.90;;;;;;5024773;28;20232;-33
2023/03/31 09:48:34;;;;;;;21.03;4.13;;;15.20;99.90;;;;;;5024716;28;20201;-33
2023/03/31 09:51:13;;;;;;;20.57;3.70;;;15.20;99.90;;;;;;5026303;28;20204;-32
2023/03/31 09:53:49;;;;;;;20.40;4.37;;;15.30;99.90;;;;;;5024420;28;20707;-33
2023/03/31 09:56:43;;;;;;;27.47;4.13;;;15.30;99.90;;;;;;5026056;28;20724;-33
2023/03/31 09:59:19;;;;;;;17.57;3.43;;;15.40;99.90;;;;;;5026091;28;20304;-33
2023/03/31 10:01:52;;;;;;;17.90;3.90;;;15.40;99.90;;;;;;5024396;28;20201;-32
2023/03/31 10:04:25;;;;;;;21.13;4.13;;;15.40;99.90;;;;;;5024561;28;20197;-33
2023/03/31 10:06:55;;;;;;;24.80;4.70;;;15.50;99.90;;;;;;5024513;28;20213;-33
2023/03/31 10:09:34;;;;;;;23.60;4.60;;;15.50;99.90;;;;;;5025821;28;20624;-33
2023/03/31 10:12:05;;;;;;;27.47;4.47;;;15.50;99.90;;;;;;5024308;28;20354;-33
2023/03/31 10:14:54;;;;;;;23.07;4.50;;;15.50;99.90;;;;;;5024527;28;20231;-32
2023/03/31 10:17:26;;;;;;;17.47;3.70;;;15.60;99.90;;;;;;5026147;28;20229;-33
2023/03/31 10:20:05;;;;;;;17.77;4.00;;;15.50;99.90;;;;;;5025819;28;20706;-33
2023/03/31 10:22:43;;;;;;;16.00;3.23;;;15.50;99.90;;;;;;5024740;28;20591;-33
2023/03/31 10:25:22;;;;;;;19.53;3.90;;;15.50;99.90;;;;;;5025598;28;20216;-33
2023/03/31 10:27:53;;;;;;;15.57;4.53;;;15.50;99.90;;;;;;5025824;28;20650;-33
2023/03/31 10:30:28;;;;;;;13.20;3.47;;;15.40;99.90;;;;;;5028322;28;20546;-33
2023/03/31 10:33:00;;;;;;;13.60;3.53;;;15.50;99.90;;;;;;5028355;28;20239;-33
2023/03/31 10:35:55;;;;;;;20.50;4.00;;;15.50;99.90;;;;;;5014904;28;20224;-33
2023/03/31 10:38:35;;;;;;;12.57;3.13;;;15.50;99.90;;;;;;5028370;28;20204;-33
2023/03/31 10:41:05;;;;;;;10.38;3.13;;;15.50;99.90;;;;;;5029505;28;20212;-33
2023/03/31 10:43:47;;;;;;;14.70;3.43;;;15.60;99.90;;;;;;5029909;28;20561;-33
2023/03/31 10:46:16;;;;;;;17.93;4.03;;;15.50;99.90;;;;;;5028190;28;20284;-33
2023/03/31 10:48:50;;;;;;;12.93;3.10;;;15.60;99.90;;;;;;5029415;28;20208;-33
2023/03/31 10:51:26;;;;;;;14.07;3.23;;;15.50;99.90;;;;;;5027991;28;21148;-32
2023/03/31 10:54:00;;;;;;;15.57;3.23;;;15.50;99.90;;;;;;5027874;28;20224;-33
2023/03/31 10:56:30;;;;;;;16.00;3.20;;;15.60;99.90;;;;;;5027730;28;20286;-33
2023/03/31 10:59:05;;;;;;;12.30;3.30;;;15.60;99.90;;;;;;5029423;28;20220;-33
2023/03/31 11:01:35;;;;;;;15.80;3.87;;;15.60;99.90;;;;;;5027834;28;20197;-34
2023/03/31 11:04:24;;;;;;;9.77;2.83;;;15.60;99.90;;;;;;5027584;28;20228;-33
2023/03/31 11:07:18;;;;;;;17.03;3.50;;;15.70;99.90;;;;;;5029241;28;20994;-33
2023/03/31 11:10:07;;;;;;;15.10;3.30;;;15.70;99.90;;;;;;5028822;28;20768;-33
2023/03/31 11:12:56;;;;;;;14.70;3.83;;;15.70;99.90;;;;;;5027468;28;20344;-33
2023/03/31 11:15:39;;;;;;;16.60;3.87;;;15.60;99.90;;;;;;5027807;28;20236;-33
2023/03/31 11:18:22;;;;;;;14.83;3.33;;;15.70;99.90;;;;;;5028955;28;20266;-33
2023/03/31 11:21:19;;;;;;;15.27;3.33;;;15.60;99.90;;;;;;5027572;28;20201;-33
2023/03/31 11:23:57;;;;;;;13.30;3.57;;;15.60;99.90;;;;;;5027443;28;20213;-33
2023/03/31 11:26:40;;;;;;;16.07;3.37;;;15.60;99.90;;;;;;5027431;28;20233;-33
2023/03/31 11:29:26;;;;;;;14.90;3.20;;;15.50;99.90;;;;;;5028112;28;20545;-33
2023/03/31 11:32:31;;;;;;;14.10;2.93;;;15.60;99.90;;;;;;5028382;28;20735;-33
2023/03/31 11:35:08;;;;;;;13.40;3.27;;;15.50;99.90;;;;;;5026931;28;20204;-32
2023/03/31 11:37:53;;;;;;;9.63;3.00;;;15.50;99.90;;;;;;5028132;28;20196;-32
2023/03/31 11:40:39;;;;;;;11.73;2.83;;;15.50;99.90;;;;;;5027689;28;20278;-33
2023/03/31 11:43:14;;;;;;;11.17;2.27;;;15.50;99.90;;;;;;5026572;28;20212;-33
2023/03/31 11:45:50;;;;;;;12.83;2.97;;;15.50;99.90;;;;;;5026393;28;20199;-33
2023/03/31 11:48:41;;;;;;;10.30;2.50;;;15.50;99.90;;;;;;5026458;28;20212;-33
2023/03/31 11:51:18;;;;;;;6.57;2.20;;;15.50;99.90;;;;;;5027647;28;20213;-33
2023/03/31 11:53:47;;;;;;;12.40;2.73;;;15.50;99.90;;;;;;5026103;28;20338;-33
2023/03/31 11:56:19;;;;;;;12.77;2.60;;;15.50;99.90;;;;;;5025883;28;20324;-32
2023/03/31 11:58:58;;;;;;;10.37;2.30;;;15.60;99.90;;;;;;5027937;28;20254;-32
2023/03/31 12:01:59;;;;;;;10.60;3.03;;;15.60;99.90;;;;;;5027776;28;20209;-33
2023/03/31 12:04:44;;;;;;;8.83;2.10;;;15.60;99.90;;;;;;5027632;28;20205;-32
2023/03/31 12:07:38;;;;;;;13.93;3.00;;;15.70;99.90;;;;;;5028005;28;20291;-32
2023/03/31 12:10:22;;;;;;;8.90;2.17;;;15.80;99.90;;;;;;5027812;28;20290;-32
2023/03/31 12:13:01;;;;;;;8.67;2.50;;;15.80;99.90;;;;;;5026446;28;20249;-32
2023/03/31 12:15:40;;;;;;;7.87;2.37;;;15.80;99.90;;;;;;5026030;28;20197;-32
2023/03/31 12:18:15;;;;;;;11.13;2.67;;;15.90;99.90;;;;;;5010476;28;20224;-32
2023/03/31 12:20:49;;;;;;;8.00;2.70;;;16.00;99.90;;;;;;5025877;28;20296;-32
2023/03/31 12:23:21;;;;;;;8.87;2.67;;;16.00;99.90;;;;;;5025836;28;20770;-33
2023/03/31 12:26:10;;;;;;;12.10;2.20;;;16.00;99.90;;;;;;5025909;28;20735;-33
2023/03/31 12:28:40;;;;;;;9.10;2.60;;;15.90;99.90;;;;;;5026093;28;20297;-32
2023/03/31 12:31:12;;;;;;;10.83;2.47;;;15.90;99.90;;;;;;5027161;28;20267;-32
2023/03/31 12:34:11;;;;;;;9.43;2.33;;;15.80;99.90;;;;;;5025423;28;20252;-32
2023/03/31 12:37:14;;;;;;;10.40;2.77;;;15.80;99.90;;;;;;5024974;28;20221;-32
2023/03/31 12:40:18;;;;;;;10.13;2.53;;;15.70;99.90;;;;;;5026828;28;20201;-33
2023/03/31 12:42:58;;;;;;;12.70;2.83;;;15.70;99.90;;;;;;5025420;28;20205;-33
2023/03/31 12:45:46;;;;;;;8.30;1.90;;;15.70;99.90;;;;;;5026985;28;20224;-32
2023/03/31 12:48:28;;;;;;;10.17;2.17;;;15.60;99.90;;;;;;5025323;28;20200;-32
2023/03/31 12:51:02;;;;;;;8.03;1.60;;;15.50;99.90;;;;;;5026128;28;20224;-32
2023/03/31 12:54:03;;;;;;;9.63;1.93;;;15.50;99.90;;;;;;5026314;28;21014;-32
2023/03/31 12:57:00;;;;;;;7.37;1.67;;;15.50;99.90;;;;;;5024903;28;20239;-32
2023/03/31 12:59:33;;;;;;;10.83;2.17;;;15.50;99.90;;;;;;5026100;28;20590;-32
2023/03/31 13:02:18;;;;;;;5.03;1.83;;;15.50;99.90;;;;;;5026942;28;20308;-32
2023/03/31 13:04:50;;;;;;;4.67;1.30;;;15.50;99.90;;;;;;5025717;28;20213;-32
2023/03/31 13:07:29;;;;;;;8.13;1.90;;;15.40;99.90;;;;;;5026993;28;20208;-32
2023/03/31 13:10:24;;;;;;;5.80;1.93;;;15.40;99.90;;;;;;5025350;28;20196;-33
2023/03/31 13:13:00;;;;;;;6.33;1.60;;;15.50;99.90;;;;;;5026440;28;20229;-33
2023/03/31 13:15:30;;;;;;;5.73;1.90;;;15.40;99.90;;;;;;5027035;28;20228;-33
2023/03/31 13:18:03;;;;;;;5.63;1.33;;;15.50;99.90;;;;;;5025604;28;20232;-32
2023/03/31 13:20:39;;;;;;;6.37;1.50;;;15.50;99.90;;;;;;5025341;28;20213;-33